Time;durP1;ratioP1;P1;durP2;ratioP2;P2;SDS_P1;SDS_P2;PMS_P1;PMS_P2;Temp;Humidity;BMP_temperature;BMP_pressure;BME280_temperature;BME280_humidity;BME280_pressure;Samples;Min_cycle;Max_cycle;Signal;HPM_P1;HPM_P2
2022/11/20 00:00:47;;;;;;;;;;;6.70;99.50;;;;;;4953273;28;19979;-77
2022/11/20 00:03:13;;;;;;;;;;;6.70;99.50;;;;;;4956845;28;19931;-77
2022/11/20 00:05:42;;;;;;;;;;;6.70;99.50;;;;;;4957440;28;19930;-77
2022/11/20 00:08:08;;;;;;;;;;;6.60;99.50;;;;;;4954599;28;19930;-77
2022/11/20 00:10:36;;;;;;;;;;;6.70;99.60;;;;;;4955099;28;19934;-76
2022/11/20 00:13:03;;;;;;;;;;;6.60;99.50;;;;;;4957927;28;19935;-77
2022/11/20 00:15:29;;;;;;;;;;;6.70;99.60;;;;;;4961130;28;19938;-77
2022/11/20 00:17:56;;;;;;;;;;;6.60;99.50;;;;;;4961658;28;20392;-77
2022/11/20 00:20:23;;;;;;;;;;;6.60;99.60;;;;;;4958786;28;19930;-77
2022/11/20 00:22:51;;;;;;;;;;;6.60;99.60;;;;;;4957891;28;20270;-77
2022/11/20 00:25:18;;;;;;;;;;;6.60;99.50;;;;;;4958759;28;19941;-77
2022/11/20 00:27:44;;;;;;;;;;;6.60;99.50;;;;;;4961008;28;19930;-76
2022/11/20 00:30:11;;;;;;;;;;;6.60;99.60;;;;;;4957392;28;19930;-77
2022/11/20 00:32:38;;;;;;;;;;;6.60;99.60;;;;;;4954472;28;19945;-76
2022/11/20 00:35:05;;;;;;;;;;;6.60;99.60;;;;;;4956544;28;19941;-77
2022/11/20 00:37:31;;;;;;;;;;;6.60;99.60;;;;;;4956676;28;20020;-76
2022/11/20 00:39:59;;;;;;;;;;;6.60;99.60;;;;;;4956577;28;19935;-77
2022/11/20 00:42:26;;;;;;;;;;;6.60;99.60;;;;;;4957304;28;19927;-77
2022/11/20 00:44:52;;;;;;;;;;;6.60;99.60;;;;;;4956263;28;19945;-77
2022/11/20 00:47:19;;;;;;;;;;;6.60;99.60;;;;;;4949522;28;20320;-77
2022/11/20 00:49:46;;;;;;;;;;;6.60;99.60;;;;;;4956612;28;19930;-77
2022/11/20 00:52:12;;;;;;;;;;;6.60;99.60;;;;;;4955799;28;19930;-78
2022/11/20 00:54:39;;;;;;;;;;;6.60;99.60;;;;;;4959619;28;19941;-77
2022/11/20 00:57:07;;;;;;;;;;;6.60;99.60;;;;;;4952896;28;19964;-77
2022/11/20 00:59:33;;;;;;;;;;;6.60;99.50;;;;;;4953373;28;19930;-76
2022/11/20 01:02:00;;;;;;;;;;;6.60;99.50;;;;;;4958711;28;19938;-77
2022/11/20 01:04:26;;;;;;;;;;;6.50;99.50;;;;;;4957621;28;21030;-77
2022/11/20 01:06:53;;;;;;;;;;;6.60;99.50;;;;;;4955102;28;19977;-77
2022/11/20 01:09:19;;;;;;;;;;;6.60;99.60;;;;;;4957055;28;19952;-77
2022/11/20 01:11:46;;;;;;;;;;;6.50;99.50;;;;;;4956218;28;19926;-77
2022/11/20 01:14:15;;;;;;;;;;;6.60;99.90;;;;;;4962248;28;19963;-76
2022/11/20 01:16:42;;;;;;;;;;;6.60;99.60;;;;;;4952083;28;19930;-77
2022/11/20 01:19:11;;;;;;;;;;;6.50;99.60;;;;;;4959894;28;20392;-77
2022/11/20 01:21:38;;;;;;;;;;;6.50;99.60;;;;;;4958347;28;20023;-77
2022/11/20 01:24:05;;;;;;;;;;;6.50;99.60;;;;;;4957694;28;19934;-77
2022/11/20 01:26:33;;;;;;;;;;;6.50;99.60;;;;;;4955771;28;20317;-77
2022/11/20 01:29:01;;;;;;;;;;;6.50;99.60;;;;;;4958462;28;19930;-77
2022/11/20 01:31:30;;;;;;;;;;;6.50;99.60;;;;;;4954577;28;19930;-77
2022/11/20 01:33:57;;;;;;;;;;;6.60;99.60;;;;;;4958487;28;19930;-77
2022/11/20 01:36:25;;;;;;;;;;;6.50;99.60;;;;;;4957099;28;19930;-77
2022/11/20 01:38:51;;;;;;;;;;;6.50;99.60;;;;;;4962137;28;19930;-77
2022/11/20 01:43:59;;;;;;;;;;;6.50;99.60;;;;;;4956065;28;19962;-77
2022/11/20 01:46:25;;;;;;;;;;;6.50;99.60;;;;;;4954554;28;20020;-77
2022/11/20 01:48:55;;;;;;;;;;;6.50;99.60;;;;;;4954110;28;19938;-77
2022/11/20 01:51:23;;;;;;;;;;;6.50;99.60;;;;;;4955800;28;19934;-77
2022/11/20 01:53:51;;;;;;;;;;;6.50;99.70;;;;;;4959034;28;19930;-77
2022/11/20 01:56:18;;;;;;;;;;;6.50;99.70;;;;;;4955006;28;19937;-77
2022/11/20 01:58:47;;;;;;;;;;;6.50;99.70;;;;;;4959442;28;20491;-76
2022/11/20 02:01:14;;;;;;;;;;;6.50;99.70;;;;;;4959633;28;19930;-78
2022/11/20 02:03:41;;;;;;;;;;;6.50;99.80;;;;;;4948857;28;19931;-77
2022/11/20 02:06:12;;;;;;;;;;;6.50;99.90;;;;;;4964540;28;19929;-76
2022/11/20 02:08:39;;;;;;;;;;;6.50;99.80;;;;;;4956395;28;19941;-77
2022/11/20 02:11:05;;;;;;;;;;;6.50;99.80;;;;;;4958608;28;19934;-78
2022/11/20 02:13:43;;;;;;;;;;;6.50;99.90;;;;;;4961300;28;19930;-78
2022/11/20 02:16:12;;;;;;;;;;;6.50;99.90;;;;;;4956698;28;19937;-78
2022/11/20 02:18:39;;;;;;;;;;;6.50;99.90;;;;;;4960977;28;19930;-77
2022/11/20 02:21:07;;;;;;;;;;;6.50;99.90;;;;;;4958775;28;19941;-77
2022/11/20 02:23:39;;;;;;;;;;;6.50;99.90;;;;;;4958353;28;19934;-77
2022/11/20 02:26:09;;;;;;;;;;;6.50;99.90;;;;;;4955836;28;19935;-77
2022/11/20 02:28:35;;;;;;;;;;;6.60;99.90;;;;;;4964207;28;19944;-77
2022/11/20 02:31:02;;;;;;;;;;;6.60;99.90;;;;;;4963234;28;19930;-77
2022/11/20 02:33:28;;;;;;;;;;;6.60;99.90;;;;;;4960299;28;19930;-77
2022/11/20 02:35:55;;;;;;;;;;;6.60;99.90;;;;;;4955512;28;19942;-76
2022/11/20 02:38:22;;;;;;;;;;;6.60;99.90;;;;;;4960098;28;19937;-77
2022/11/20 02:40:48;;;;;;;;;;;6.60;99.90;;;;;;4959918;28;19930;-78
2022/11/20 02:43:17;;;;;;;;;;;6.60;99.90;;;;;;4959712;28;19960;-77
2022/11/20 02:45:44;;;;;;;;;;;6.60;99.90;;;;;;4957897;28;20269;-77
2022/11/20 02:48:10;;;;;;;;;;;6.60;99.90;;;;;;4960806;28;19930;-78
2022/11/20 02:50:37;;;;;;;;;;;6.60;99.90;;;;;;4956845;28;19937;-77
2022/11/20 02:53:04;;;;;;;;;;;6.60;99.90;;;;;;4958819;28;19938;-77
2022/11/20 02:55:31;;;;;;;;;;;6.60;99.90;;;;;;4951899;28;19941;-78
2022/11/20 02:57:57;;;;;;;;;;;6.60;99.90;;;;;;4957710;28;19930;-77
2022/11/20 03:00:25;;;;;;;;;;;6.60;99.90;;;;;;4951193;28;19930;-77
2022/11/20 03:02:52;;;;;;;;;;;6.60;99.90;;;;;;4955379;28;19930;-78
2022/11/20 03:05:18;;;;;;;;;;;6.70;99.90;;;;;;4956019;28;19937;-77
2022/11/20 03:07:45;;;;;;;;;;;6.70;99.90;;;;;;4959961;28;19934;-77
2022/11/20 03:10:12;;;;;;;;;;;6.60;99.90;;;;;;4960522;28;19938;-77
2022/11/20 03:12:38;;;;;;;;;;;6.70;99.90;;;;;;4956966;28;19934;-77
2022/11/20 03:15:05;;;;;;;;;;;6.70;99.90;;;;;;4955096;28;19930;-78
2022/11/20 03:17:33;;;;;;;;;;;6.70;99.90;;;;;;4954142;28;19930;-77
2022/11/20 03:20:00;;;;;;;;;;;6.70;99.90;;;;;;4954429;28;19937;-78
2022/11/20 03:22:26;;;;;;;;;;;6.70;99.90;;;;;;4956450;28;19938;-78
2022/11/20 03:24:53;;;;;;;;;;;6.70;99.90;;;;;;4956227;28;19930;-77
2022/11/20 03:27:19;;;;;;;;;;;6.70;99.90;;;;;;4955197;28;19941;-77
2022/11/20 03:29:46;;;;;;;;;;;6.70;99.90;;;;;;4961237;28;20895;-78
2022/11/20 03:32:12;;;;;;;;;;;6.70;99.90;;;;;;4958940;28;19930;-78
2022/11/20 03:34:40;;;;;;;;;;;6.70;99.90;;;;;;4959271;28;19937;-77
2022/11/20 03:37:07;;;;;;;;;;;6.70;99.90;;;;;;4957894;28;19941;-78
2022/11/20 03:39:33;;;;;;;;;;;6.80;99.90;;;;;;4959105;28;20396;-78
2022/11/20 03:42:00;;;;;;;;;;;6.80;99.90;;;;;;4961309;28;19945;-77
2022/11/20 03:44:26;;;;;;;;;;;6.80;99.90;;;;;;4954051;28;19942;-77
2022/11/20 03:46:53;;;;;;;;;;;6.80;99.90;;;;;;4959763;28;19946;-77
2022/11/20 03:49:19;;;;;;;;;;;6.80;99.90;;;;;;4957277;28;19930;-77
2022/11/20 03:51:47;;;;;;;;;;;6.90;99.90;;;;;;4956013;28;21238;-77
2022/11/20 03:54:14;;;;;;;;;;;6.80;99.90;;;;;;4957699;28;19930;-78
2022/11/20 03:56:40;;;;;;;;;;;6.80;99.90;;;;;;4958022;28;19959;-78
2022/11/20 03:59:07;;;;;;;;;;;6.80;99.90;;;;;;4958454;28;19934;-78
2022/11/20 04:01:35;;;;;;;;;;;6.80;99.90;;;;;;4955915;28;19931;-78
2022/11/20 04:04:02;;;;;;;;;;;6.80;99.90;;;;;;4956025;28;20807;-78
2022/11/20 04:06:29;;;;;;;;;;;6.80;99.90;;;;;;4958217;28;19930;-78
2022/11/20 04:08:57;;;;;;;;;;;6.80;99.90;;;;;;4957992;28;19975;-78
2022/11/20 04:11:25;;;;;;;;;;;6.80;99.90;;;;;;4958266;28;19937;-77
2022/11/20 04:13:52;;;;;;;;;;;6.80;99.90;;;;;;4963345;28;19938;-77
2022/11/20 04:16:19;;;;;;;;;;;6.80;99.90;;;;;;4955342;28;19941;-77
2022/11/20 04:18:45;;;;;;;;;;;6.80;99.90;;;;;;4958573;28;19930;-78
2022/11/20 04:21:13;;;;;;;;;;;6.90;99.90;;;;;;4958763;28;19937;-77
2022/11/20 04:23:39;;;;;;;;;;;6.80;99.90;;;;;;4952969;28;19930;-77
2022/11/20 04:26:08;;;;;;;;;;;6.90;99.90;;;;;;4960193;28;20348;-77
2022/11/20 04:28:35;;;;;;;;;;;6.90;99.90;;;;;;4959817;28;20516;-77
2022/11/20 04:31:02;;;;;;;;;;;6.80;99.90;;;;;;4958043;28;19949;-77
2022/11/20 04:33:29;;;;;;;;;;;6.90;99.90;;;;;;4957990;28;20431;-78
2022/11/20 04:35:55;;;;;;;;;;;6.80;99.90;;;;;;4959207;28;20219;-76
2022/11/20 04:38:22;;;;;;;;;;;6.90;99.90;;;;;;4960222;28;19937;-77
2022/11/20 04:40:48;;;;;;;;;;;6.90;99.90;;;;;;4960544;28;19930;-78
2022/11/20 04:43:16;;;;;;;;;;;6.90;99.90;;;;;;4957069;28;19934;-77
2022/11/20 04:45:43;;;;;;;;;;;6.90;99.90;;;;;;4960129;28;19930;-77
2022/11/20 04:48:10;;;;;;;;;;;6.90;99.90;;;;;;4956778;28;19937;-77
2022/11/20 04:50:40;;;;;;;;;;;6.90;99.90;;;;;;4966655;28;19930;-77
2022/11/20 04:53:06;;;;;;;;;;;6.90;99.90;;;;;;4957740;28;19941;-77
2022/11/20 04:55:33;;;;;;;;;;;6.90;99.90;;;;;;4954977;28;19950;-77
2022/11/20 04:58:00;;;;;;;;;;;6.90;99.90;;;;;;4960643;28;19930;-77
2022/11/20 05:00:27;;;;;;;;;;;6.90;99.90;;;;;;4955881;28;19937;-77
2022/11/20 05:02:54;;;;;;;;;;;6.90;99.90;;;;;;4962620;28;19941;-77
2022/11/20 05:05:21;;;;;;;;;;;6.90;99.90;;;;;;4955154;28;19940;-77
2022/11/20 05:07:47;;;;;;;;;;;6.90;99.90;;;;;;4959190;28;19930;-78
2022/11/20 05:10:14;;;;;;;;;;;6.90;99.90;;;;;;4962421;28;19938;-77
2022/11/20 05:12:40;;;;;;;;;;;6.90;99.90;;;;;;4951124;28;19930;-77
2022/11/20 05:15:07;;;;;;;;;;;6.90;99.90;;;;;;4961629;28;19934;-77
2022/11/20 05:17:35;;;;;;;;;;;7.00;99.90;;;;;;4955403;28;19938;-78
2022/11/20 05:20:02;;;;;;;;;;;6.90;99.90;;;;;;4963218;28;19941;-78
2022/11/20 05:22:28;;;;;;;;;;;7.00;99.90;;;;;;4959538;28;20130;-77
2022/11/20 05:24:55;;;;;;;;;;;7.00;99.90;;;;;;4957585;28;19931;-77
2022/11/20 05:27:21;;;;;;;;;;;6.90;99.90;;;;;;4960621;28;19927;-77
2022/11/20 05:29:48;;;;;;;;;;;6.90;99.90;;;;;;4961432;28;19965;-77
2022/11/20 05:32:15;;;;;;;;;;;6.90;99.90;;;;;;4950648;28;19930;-77
2022/11/20 05:34:42;;;;;;;;;;;7.00;99.90;;;;;;4955838;28;20049;-77
2022/11/20 05:37:09;;;;;;;;;;;7.00;99.90;;;;;;4956392;28;19945;-78
2022/11/20 05:39:36;;;;;;;;;;;7.00;99.90;;;;;;4954755;28;19941;-77
2022/11/20 05:44:46;;;;;;;;;;;7.00;99.90;;;;;;4958804;28;19952;-77
2022/11/20 05:47:13;;;;;;;;;;;7.00;99.90;;;;;;4952367;28;19930;-77
2022/11/20 05:49:39;;;;;;;;;;;7.00;99.90;;;;;;4959710;28;19937;-77
2022/11/20 05:52:07;;;;;;;;;;;7.00;99.80;;;;;;4959789;28;19934;-77
2022/11/20 05:54:34;;;;;;;;;;;7.00;99.80;;;;;;4956437;28;19937;-77
2022/11/20 05:57:00;;;;;;;;;;;7.00;99.80;;;;;;4957029;28;19946;-77
2022/11/20 05:59:27;;;;;;;;;;;7.00;99.80;;;;;;4956316;28;19934;-77
2022/11/20 06:01:54;;;;;;;;;;;7.00;99.80;;;;;;4953698;28;19931;-77
2022/11/20 06:04:20;;;;;;;;;;;7.00;99.80;;;;;;4954766;28;20040;-77
2022/11/20 06:06:47;;;;;;;;;;;7.00;99.80;;;;;;4955785;28;19934;-77
2022/11/20 06:09:15;;;;;;;;;;;7.00;99.80;;;;;;4960626;28;19937;-77
2022/11/20 06:11:41;;;;;;;;;;;7.00;99.80;;;;;;4956021;28;19934;-77
2022/11/20 06:14:08;;;;;;;;;;;7.00;99.80;;;;;;4964474;28;19930;-77
2022/11/20 06:16:35;;;;;;;;;;;7.00;99.80;;;;;;4958804;28;19930;-78
2022/11/20 06:19:01;;;;;;;;;;;7.00;99.80;;;;;;4955777;28;19930;-77
2022/11/20 06:21:28;;;;;;;;;;;7.00;99.80;;;;;;4963659;28;19934;-77
2022/11/20 06:23:54;;;;;;;;;;;7.00;99.80;;;;;;4956489;28;19942;-77
2022/11/20 06:26:23;;;;;;;;;;;7.00;99.80;;;;;;4956221;28;19930;-77
2022/11/20 06:28:50;;;;;;;;;;;7.00;99.80;;;;;;4958353;28;20193;-77
2022/11/20 06:31:17;;;;;;;;;;;7.10;99.80;;;;;;4954618;28;19930;-77
2022/11/20 06:33:44;;;;;;;;;;;7.10;99.90;;;;;;4953563;28;19930;-77
2022/11/20 06:36:11;;;;;;;;;;;7.10;99.90;;;;;;4962954;28;19930;-77
2022/11/20 06:38:38;;;;;;;;;;;7.00;99.80;;;;;;4957531;28;19934;-77
2022/11/20 06:41:05;;;;;;;;;;;7.10;99.90;;;;;;4963290;28;19930;-77
2022/11/20 06:43:33;;;;;;;;;;;7.10;99.90;;;;;;4961022;28;19930;-78
2022/11/20 06:46:00;;;;;;;;;;;7.00;99.90;;;;;;4957312;28;19937;-77
2022/11/20 06:48:27;;;;;;;;;;;7.10;99.90;;;;;;4957229;28;20511;-77
2022/11/20 06:50:54;;;;;;;;;;;7.10;99.90;;;;;;4962975;28;19930;-77
2022/11/20 06:53:21;;;;;;;;;;;7.10;99.90;;;;;;4953275;28;19945;-77
2022/11/20 06:55:48;;;;;;;;;;;7.00;99.90;;;;;;4955813;28;19930;-77
2022/11/20 06:58:15;;;;;;;;;;;7.10;99.90;;;;;;4955660;28;19931;-77
2022/11/20 07:00:44;;;;;;;;;;;7.10;99.90;;;;;;4953199;28;19930;-77
2022/11/20 07:03:11;;;;;;;;;;;7.10;99.90;;;;;;4945648;28;19945;-79
2022/11/20 07:05:39;;;;;;;;;;;7.00;99.90;;;;;;4944126;28;19949;-76
2022/11/20 07:08:05;;;;;;;;;;;7.00;99.90;;;;;;4946430;28;19930;-77
2022/11/20 07:10:32;;;;;;;;;;;7.10;99.90;;;;;;4944883;28;19942;-77
2022/11/20 07:12:59;;;;;;;;;;;7.10;99.90;;;;;;4950205;28;20347;-78
2022/11/20 07:15:26;;;;;;;;;;;7.10;99.90;;;;;;4953794;28;19934;-77
2022/11/20 07:17:54;;;;;;;;;;;7.00;99.90;;;;;;4955201;28;19961;-77
2022/11/20 07:20:20;;;;;;;;;;;7.10;99.90;;;;;;4958904;28;19937;-77
2022/11/20 07:22:47;;;;;;;;;;;7.10;99.90;;;;;;4955796;28;19930;-77
2022/11/20 07:25:14;;;;;;;;;;;7.00;99.90;;;;;;4957408;28;19930;-77
2022/11/20 07:27:40;;;;;;;;;;;7.10;99.90;;;;;;4958129;28;19930;-78
2022/11/20 07:30:07;;;;;;;;;;;7.00;99.90;;;;;;4960626;28;19934;-77
2022/11/20 07:32:34;;;;;;;;;;;7.10;99.90;;;;;;4948278;28;19930;-77
2022/11/20 07:35:01;;;;;;;;;;;7.10;99.90;;;;;;4953553;28;19938;-77
2022/11/20 07:37:28;;;;;;;;;;;7.10;99.90;;;;;;4952351;28;19931;-77
2022/11/20 07:39:55;;;;;;;;;;;7.10;99.90;;;;;;4954221;28;19938;-77
2022/11/20 07:42:21;;;;;;;;;;;7.00;99.90;;;;;;4949860;28;19941;-76
2022/11/20 07:44:48;;;;;;;;;;;7.10;99.90;;;;;;4947851;28;19934;-77
2022/11/20 07:47:14;;;;;;;;;;;7.00;99.90;;;;;;4952736;28;19930;-77
2022/11/20 07:49:41;;;;;;;;;;;7.10;99.90;;;;;;4954677;28;19941;-77
2022/11/20 07:52:09;;;;;;;;;;;7.10;99.90;;;;;;4950788;28;19941;-76
2022/11/20 07:54:35;;;;;;;;;;;7.10;99.90;;;;;;4947713;28;19930;-77
2022/11/20 07:57:02;;;;;;;;;;;7.10;99.90;;;;;;4951857;28;19930;-78
2022/11/20 07:59:28;;;;;;;;;;;7.10;99.90;;;;;;4951187;28;19930;-77
2022/11/20 08:01:55;;;;;;;;;;;7.10;99.90;;;;;;4947754;28;20620;-78
2022/11/20 08:04:23;;;;;;;;;;;7.10;99.90;;;;;;4951625;28;19938;-77
2022/11/20 08:06:49;;;;;;;;;;;7.10;99.90;;;;;;4951301;28;20037;-77
2022/11/20 08:09:17;;;;;;;;;;;7.10;99.90;;;;;;4957560;28;19930;-77
2022/11/20 08:14:28;;;;;;;;;;;7.10;99.90;;;;;;4953519;28;19984;-77
2022/11/20 08:16:54;;;;;;;;;;;7.10;99.90;;;;;;4953346;28;19934;-77
2022/11/20 08:19:21;;;;;;;;;;;7.10;99.90;;;;;;4954295;28;19931;-76
2022/11/20 08:21:47;;;;;;;;;;;7.10;99.90;;;;;;4960445;28;19933;-77
2022/11/20 08:24:14;;;;;;;;;;;7.10;99.90;;;;;;4954828;28;19940;-77
2022/11/20 08:26:42;;;;;;;;;;;7.10;99.90;;;;;;4956137;28;19933;-77
2022/11/20 08:29:08;;;;;;;;;;;7.10;99.90;;;;;;4965308;28;19933;-77
2022/11/20 08:31:35;;;;;;;;;;;7.10;99.90;;;;;;4954288;28;20546;-78
2022/11/20 08:34:02;;;;;;;;;;;7.10;99.90;;;;;;4956194;28;19934;-77
2022/11/20 08:36:28;;;;;;;;;;;7.10;99.90;;;;;;4947908;28;19941;-77
2022/11/20 08:38:55;;;;;;;;;;;7.10;99.90;;;;;;4955274;28;20021;-76
2022/11/20 08:41:26;;;;;;;;;;;7.10;99.90;;;;;;4959873;28;19938;-76
2022/11/20 08:43:58;;;;;;;;;;;7.10;99.90;;;;;;4964020;28;19930;-77
2022/11/20 08:46:25;;;;;;;;;;;7.10;99.90;;;;;;4958721;28;19935;-76
2022/11/20 08:48:52;;;;;;;;;;;7.10;99.90;;;;;;4945551;28;19930;-75
2022/11/20 08:51:19;;;;;;;;;;;7.10;99.90;;;;;;4941055;28;19941;-76
2022/11/20 08:53:45;;;;;;;;;;;7.10;99.90;;;;;;4948252;28;20403;-77
2022/11/20 08:56:12;;;;;;;;;;;7.10;99.90;;;;;;4956030;28;19930;-78
2022/11/20 08:58:39;;;;;;;;;;;7.10;99.90;;;;;;4951660;28;19930;-77
2022/11/20 09:01:07;;;;;;;;;;;7.10;99.90;;;;;;4948649;28;19930;-77
2022/11/20 09:03:33;;;;;;;;;;;7.10;99.90;;;;;;4952184;28;20094;-77
2022/11/20 09:06:01;;;;;;;;;;;7.10;99.90;;;;;;4952123;28;19930;-77
2022/11/20 09:08:28;;;;;;;;;;;7.10;99.90;;;;;;4952076;28;19930;-77
2022/11/20 09:10:55;;;;;;;;;;;7.10;99.90;;;;;;4953590;28;20443;-78
2022/11/20 09:13:22;;;;;;;;;;;7.10;99.90;;;;;;4951714;28;19930;-77
2022/11/20 09:15:53;;;;;;;;;;;7.20;99.90;;;;;;4951709;28;19942;-77
2022/11/20 09:18:21;;;;;;;;;;;7.10;99.90;;;;;;4954583;28;19937;-77
2022/11/20 09:20:47;;;;;;;;;;;7.10;99.90;;;;;;4956150;28;20320;-77
2022/11/20 09:23:14;;;;;;;;;;;7.10;99.90;;;;;;4953826;28;19937;-77
2022/11/20 09:25:40;;;;;;;;;;;7.10;99.90;;;;;;4958776;28;19949;-77
2022/11/20 09:28:07;;;;;;;;;;;7.20;99.90;;;;;;4949255;28;20569;-77
2022/11/20 09:30:34;;;;;;;;;;;7.20;99.90;;;;;;4961129;28;19937;-77
2022/11/20 09:33:00;;;;;;;;;;;7.20;99.90;;;;;;4961549;28;19930;-78
2022/11/20 09:35:38;;;;;;;;;;;7.20;99.90;;;;;;4953396;28;20298;-77
2022/11/20 09:38:06;;;;;;;;;;;7.20;99.90;;;;;;4961075;28;20323;-77
2022/11/20 09:40:33;;;;;;;;;;;7.20;99.90;;;;;;4953052;28;19930;-77
2022/11/20 09:43:02;;;;;;;;;;;7.20;99.90;;;;;;4942252;28;19941;-78
2022/11/20 09:45:39;;;;;;;;;;;7.20;99.90;;;;;;4938877;28;19942;-77
2022/11/20 09:48:18;;;;;;;;;;;7.20;99.90;;;;;;4949698;28;20295;-77
2022/11/20 09:50:50;;;;;;;;;;;7.20;99.90;;;;;;4953660;28;19934;-78
2022/11/20 09:53:21;;;;;;;;;;;7.20;99.90;;;;;;4953899;28;19937;-78
2022/11/20 09:55:48;;;;;;;;;;;7.30;99.90;;;;;;4952496;28;20438;-77
2022/11/20 09:58:18;;;;;;;;;;;7.30;99.90;;;;;;4956027;28;19930;-77
2022/11/20 10:00:45;;;;;;;;;;;7.30;99.90;;;;;;4949966;28;19930;-77
2022/11/20 10:03:14;;;;;;;;;;;7.30;99.90;;;;;;4954951;28;19934;-77
2022/11/20 10:05:43;;;;;;;;;;;7.40;99.90;;;;;;4957105;28;19934;-77
2022/11/20 10:08:14;;;;;;;;;;;7.30;99.90;;;;;;4957258;28;19941;-77
2022/11/20 10:10:44;;;;;;;;;;;7.30;99.90;;;;;;4955346;28;19937;-77
2022/11/20 10:13:21;;;;;;;;;;;7.40;99.90;;;;;;4958949;28;20380;-77
2022/11/20 10:15:54;;;;;;;;;;;7.40;99.90;;;;;;4958458;28;19986;-77
2022/11/20 10:18:24;;;;;;;;;;;7.40;99.90;;;;;;4958085;28;19941;-77
2022/11/20 10:20:56;;;;;;;;;;;7.40;99.90;;;;;;4951975;28;19931;-78
2022/11/20 10:23:33;;;;;;;;;;;7.40;99.90;;;;;;4943973;28;19931;-77
2022/11/20 10:26:02;;;;;;;;;;;7.40;99.90;;;;;;4939989;28;19969;-78
2022/11/20 10:28:38;;;;;;;;;;;7.40;99.90;;;;;;4939869;28;19935;-78
2022/11/20 10:31:08;;;;;;;;;;;7.40;99.90;;;;;;4953922;28;19960;-77
2022/11/20 10:33:37;;;;;;;;;;;7.50;99.90;;;;;;4956002;28;19937;-77
2022/11/20 10:36:09;;;;;;;;;;;7.40;99.90;;;;;;4952236;28;19941;-78
2022/11/20 10:38:39;;;;;;;;;;;7.50;99.90;;;;;;4950777;28;19931;-77
2022/11/20 10:41:25;;;;;;;;;;;7.50;99.90;;;;;;4940575;28;19931;-77
2022/11/20 10:43:52;;;;;;;;;;;7.40;99.90;;;;;;4940759;28;20020;-78
2022/11/20 10:46:21;;;;;;;;;;;7.50;99.90;;;;;;4939954;28;19930;-77
2022/11/20 10:48:49;;;;;;;;;;;7.50;99.90;;;;;;4938944;28;19930;-77
2022/11/20 10:51:22;;;;;;;;;;;7.50;99.90;;;;;;4938587;28;19937;-77
2022/11/20 10:54:05;;;;;;;;;;;7.50;99.90;;;;;;4932803;28;19930;-77
2022/11/20 10:56:35;;;;;;;;;;;7.60;99.90;;;;;;4936304;28;21318;-77
2022/11/20 10:59:12;;;;;;;;;;;7.70;99.90;;;;;;4939645;28;19930;-77
2022/11/20 11:01:41;;;;;;;;;;;7.70;99.90;;;;;;4931629;28;19970;-77
2022/11/20 11:04:14;;;;;;;;;;;7.80;99.90;;;;;;4940619;28;20012;-77
2022/11/20 11:06:44;;;;;;;;;;;7.80;99.90;;;;;;4931477;28;21026;-76
2022/11/20 11:09:14;;;;;;;;;;;7.90;99.90;;;;;;4934730;28;19934;-77
2022/11/20 11:11:41;;;;;;;;;;;8.00;99.90;;;;;;4932693;28;19934;-77
2022/11/20 11:14:07;;;;;;;;;;;8.00;99.90;;;;;;4932868;28;19941;-77
2022/11/20 11:16:34;;;;;;;;;;;8.10;99.90;;;;;;4950912;28;19930;-77
2022/11/20 11:19:04;;;;;;;;;;;8.10;99.90;;;;;;4951681;28;19934;-77
2022/11/20 11:21:31;;;;;;;;;;;8.20;99.90;;;;;;4943293;28;19930;-77
2022/11/20 11:23:59;;;;;;;;;;;8.20;99.90;;;;;;4940111;28;19941;-77
2022/11/20 11:26:27;;;;;;;;;;;8.20;99.90;;;;;;4945705;28;19930;-77
2022/11/20 11:28:55;;;;;;;;;;;8.30;99.90;;;;;;4955945;28;19965;-76
2022/11/20 11:31:26;;;;;;;;;;;8.30;99.90;;;;;;4957037;28;19937;-77
2022/11/20 11:33:52;;;;;;;;;;;8.30;99.90;;;;;;4955095;28;19941;-77
2022/11/20 11:36:21;;;;;;;;;;;8.30;99.90;;;;;;4961859;28;19937;-77
2022/11/20 11:38:51;;;;;;;;;;;8.30;99.90;;;;;;4953755;28;19934;-77
2022/11/20 11:41:19;;;;;;;;;;;8.30;99.90;;;;;;4947167;28;19930;-77
2022/11/20 11:46:37;;;;;;;;;;;8.40;99.90;;;;;;4957123;28;19941;-76
2022/11/20 11:49:13;;;;;;;;;;;8.40;99.90;;;;;;4955664;28;19937;-76
2022/11/20 11:51:42;;;;;;;;;;;8.40;99.90;;;;;;4958953;28;20032;-77
2022/11/20 11:54:15;;;;;;;;;;;8.50;99.90;;;;;;4955888;28;19930;-77
2022/11/20 11:56:41;;;;;;;;;;;8.40;99.90;;;;;;4955910;28;20479;-77
2022/11/20 11:59:13;;;;;;;;;;;8.40;99.90;;;;;;4955719;28;19934;-76
2022/11/20 12:01:43;;;;;;;;;;;8.50;99.90;;;;;;4957872;28;20403;-76
2022/11/20 12:04:15;;;;;;;;;;;8.50;99.90;;;;;;4961547;28;19937;-76
2022/11/20 12:06:43;;;;;;;;;;;8.50;99.90;;;;;;4955944;28;19992;-76
2022/11/20 12:09:11;;;;;;;;;;;8.50;99.90;;;;;;4957371;28;19937;-76
2022/11/20 12:11:39;;;;;;;;;;;8.50;99.90;;;;;;4960481;28;19969;-76
2022/11/20 12:14:12;;;;;;;;;;;8.60;99.90;;;;;;4958459;28;20359;-76
2022/11/20 12:16:39;;;;;;;;;;;8.60;99.90;;;;;;4948720;28;19930;-76
2022/11/20 12:19:09;;;;;;;;;;;8.60;99.90;;;;;;4953635;28;19941;-76
2022/11/20 12:21:39;;;;;;;;;;;8.60;99.90;;;;;;4957381;28;20006;-76
2022/11/20 12:24:11;;;;;;;;;;;8.60;99.90;;;;;;4951614;28;20395;-76
2022/11/20 12:26:44;;;;;;;;;;;8.60;99.90;;;;;;4952548;28;19950;-76
2022/11/20 12:29:14;;;;;;;;;;;8.70;99.90;;;;;;4954256;28;19934;-75
2022/11/20 12:31:51;;;;;;;;;;;8.60;99.90;;;;;;4952759;28;19930;-76
2022/11/20 12:34:21;;;;;;;;;;;8.70;99.90;;;;;;4953497;28;19930;-75
2022/11/20 12:36:53;;;;;;;;;;;8.70;99.90;;;;;;4957563;28;19934;-76
2022/11/20 12:39:30;;;;;;;;;;;8.60;99.90;;;;;;4958026;28;19936;-76
2022/11/20 12:45:12;;;;;;;;;;;8.70;99.90;;;;;;4955433;28;19949;-77
2022/11/20 12:47:49;;;;;;;;;;;8.70;99.90;;;;;;4954069;28;19933;-76
2022/11/20 12:50:22;;;;;;;;;;;8.70;99.90;;;;;;4952594;28;19941;-76
2022/11/20 12:52:52;;;;;;;;;;;8.70;99.90;;;;;;4951156;28;20384;-76
2022/11/20 12:55:29;;;;;;;;;;;8.70;99.90;;;;;;4948587;28;19930;-76
2022/11/20 12:57:58;;;;;;;;;;;8.80;99.90;;;;;;4949175;28;19930;-76
2022/11/20 13:00:26;;;;;;;;;;;8.80;99.90;;;;;;4953188;28;20486;-76
2022/11/20 13:03:11;;;;;;;;;;;8.80;99.90;;;;;;4955490;28;19930;-76
2022/11/20 13:05:42;;;;;;;;;;;8.80;99.90;;;;;;4944097;28;20037;-76
2022/11/20 13:08:12;;;;;;;;;;;8.80;99.90;;;;;;4949638;28;20319;-75
2022/11/20 13:10:44;;;;;;;;;;;8.90;99.90;;;;;;4953559;28;20517;-77
2022/11/20 13:13:15;;;;;;;;;;;8.90;99.90;;;;;;4951444;28;19941;-76
2022/11/20 13:15:49;;;;;;;;;;;8.90;99.90;;;;;;4954606;28;19957;-76
2022/11/20 13:18:16;;;;;;;;;;;8.90;99.90;;;;;;4951764;28;20038;-76
2022/11/20 13:20:43;;;;;;;;;;;8.90;99.90;;;;;;4943350;28;19933;-76
2022/11/20 13:23:10;;;;;;;;;;;9.00;99.90;;;;;;4941273;28;20312;-76
2022/11/20 13:25:37;;;;;;;;;;;9.00;99.90;;;;;;4937246;28;19934;-77
2022/11/20 13:28:05;;;;;;;;;;;9.00;99.80;;;;;;4938913;28;20780;-76
2022/11/20 13:30:32;;;;;;;;;;;8.90;99.30;;;;;;4946145;28;19930;-77
2022/11/20 13:33:04;;;;;;;;;;;9.00;98.90;;;;;;4939382;28;19968;-76
2022/11/20 13:35:32;;;;;;;;;;;9.00;98.50;;;;;;4939820;28;19931;-75
2022/11/20 13:38:08;;;;;;;;;;;8.90;98.40;;;;;;4937117;28;19934;-75
2022/11/20 13:40:36;;;;;;;;;;;9.00;98.30;;;;;;4944706;28;19930;-75
2022/11/20 13:43:08;;;;;;;;;;;9.00;98.10;;;;;;4948762;28;19930;-76
2022/11/20 13:45:35;;;;;;;;;;;9.00;98.20;;;;;;4949879;28;20001;-75
2022/11/20 13:48:05;;;;;;;;;;;9.00;98.10;;;;;;4951432;28;19934;-76
2022/11/20 13:50:44;;;;;;;;;;;9.00;98.10;;;;;;4948425;28;20017;-76
2022/11/20 13:53:16;;;;;;;;;;;9.00;98.10;;;;;;4953045;28;19934;-76
2022/11/20 13:55:46;;;;;;;;;;;9.00;98.20;;;;;;4952009;28;19930;-76
2022/11/20 13:58:31;;;;;;;;;;;9.00;98.20;;;;;;4952106;28;19934;-76
2022/11/20 14:01:01;;;;;;;;;;;8.90;98.20;;;;;;4946337;28;20017;-76
2022/11/20 14:03:31;;;;;;;;;;;8.90;98.10;;;;;;4947236;28;19930;-76
2022/11/20 14:06:02;;;;;;;;;;;8.90;98.20;;;;;;4947956;28;19945;-76
2022/11/20 14:08:32;;;;;;;;;;;8.90;98.50;;;;;;4949743;28;19937;-76
2022/11/20 14:11:05;;;;;;;;;;;8.90;98.00;;;;;;4947925;28;19934;-76
2022/11/20 14:13:32;;;;;;;;;;;8.90;97.90;;;;;;4948248;28;19935;-76
2022/11/20 14:15:58;;;;;;;;;;;8.90;97.70;;;;;;4948453;28;19942;-76
2022/11/20 14:18:26;;;;;;;;;;;8.90;98.00;;;;;;4946929;28;19965;-76
2022/11/20 14:20:54;;;;;;;;;;;9.00;98.30;;;;;;4948889;28;20974;-76
2022/11/20 14:23:24;;;;;;;;;;;8.90;98.10;;;;;;4938983;28;19934;-76
2022/11/20 14:25:51;;;;;;;;;;;8.90;98.20;;;;;;4948827;28;20679;-76
2022/11/20 14:28:22;;;;;;;;;;;8.90;98.30;;;;;;4954721;28;19930;-76
2022/11/20 14:30:49;;;;;;;;;;;8.90;98.40;;;;;;4952648;28;20025;-76
2022/11/20 14:33:16;;;;;;;;;;;8.90;98.40;;;;;;4958862;28;19930;-76
2022/11/20 14:35:45;;;;;;;;;;;8.90;98.50;;;;;;4949021;28;19941;-76
2022/11/20 14:38:15;;;;;;;;;;;8.80;98.50;;;;;;4949476;28;20360;-76
2022/11/20 14:40:42;;;;;;;;;;;8.80;98.40;;;;;;4954021;28;19937;-76
2022/11/20 14:43:17;;;;;;;;;;;8.80;98.30;;;;;;4954181;28;19930;-77
2022/11/20 14:45:44;;;;;;;;;;;8.80;98.40;;;;;;4951697;28;19938;-76
2022/11/20 14:48:11;;;;;;;;;;;8.80;98.30;;;;;;4953476;28;19930;-76
2022/11/20 14:50:38;;;;;;;;;;;8.70;98.20;;;;;;4952881;28;19930;-77